createdAt,value
2018-12-13T00:00:25.096Z,101870.87
2018-12-13T00:09:26.409Z,101871.64
2018-12-13T00:11:57.156Z,101871.80
2018-12-13T00:14:27.828Z,101871.27
2018-12-13T00:16:58.447Z,101873.79
2018-12-13T00:19:29.049Z,101870.97
2018-12-13T00:21:59.924Z,101871.73
2018-12-13T00:24:30.772Z,101869.30
2018-12-13T00:27:01.317Z,101872.66
2018-12-13T00:29:31.909Z,101868.73
2018-12-13T00:32:02.480Z,101868.68
2018-12-13T00:34:33.026Z,101873.58
2018-12-13T00:37:03.605Z,101871.28
2018-12-13T00:39:34.270Z,101867.91
2018-12-13T00:42:04.846Z,101865.58
2018-12-13T00:44:35.489Z,101869.34
2018-12-13T00:47:06.164Z,101866.61
2018-12-13T00:49:36.763Z,101870.34
2018-12-13T00:52:07.290Z,101862.89
2018-12-13T00:54:37.826Z,101865.22
2018-12-13T00:57:08.352Z,101869.08
2018-12-13T00:59:39.008Z,101871.73
2018-12-13T01:02:09.546Z,101872.09
2018-12-13T01:04:40.348Z,101874.33
2018-12-13T01:07:11.376Z,101870.95
2018-12-13T01:09:42.070Z,101867.85
2018-12-13T01:12:12.579Z,101870.83
2018-12-13T01:14:43.118Z,101868.23
2018-12-13T01:17:13.646Z,101873.08
2018-12-13T01:19:44.176Z,101874.45
2018-12-13T01:22:14.647Z,101871.72
2018-12-13T01:24:45.140Z,101871.20
2018-12-13T01:27:15.701Z,101870.72
2018-12-13T01:29:46.212Z,101869.38
2018-12-13T01:32:16.754Z,101863.52
2018-12-13T01:34:47.296Z,101863.79
2018-12-13T01:37:17.807Z,101864.63
2018-12-13T01:39:48.358Z,101859.61
2018-12-13T01:42:18.942Z,101864.45
2018-12-13T01:44:49.563Z,101870.81
2018-12-13T01:47:20.509Z,101875.13
2018-12-13T01:49:51.049Z,101871.94
2018-12-13T01:52:21.614Z,101873.91
2018-12-13T01:54:52.176Z,101870.09
2018-12-13T01:57:22.809Z,101873.83
2018-12-13T01:59:53.274Z,101868.69
2018-12-13T02:02:23.780Z,101873.55
2018-12-13T02:04:54.335Z,101870.14
2018-12-13T02:07:24.905Z,101872.19
2018-12-13T02:09:55.506Z,101870.01
2018-12-13T02:12:26.078Z,101868.02
2018-12-13T02:14:56.641Z,101871.73
2018-12-13T02:17:27.190Z,101868.31
2018-12-13T02:19:57.714Z,101872.62
2018-12-13T02:22:28.284Z,101868.53
2018-12-13T02:24:58.993Z,101868.09
2018-12-13T02:27:29.517Z,101870.05
2018-12-13T02:30:00.118Z,101869.12
2018-12-13T02:32:30.683Z,101870.50
2018-12-13T02:35:01.717Z,101868.46
2018-12-13T02:37:32.751Z,101868.22
2018-12-13T02:40:03.377Z,101866.53
2018-12-13T02:42:33.990Z,101867.70
2018-12-13T02:45:04.577Z,101865.80
2018-12-13T02:47:35.273Z,101863.64
2018-12-13T02:50:07.133Z,101865.47
2018-12-13T02:52:37.824Z,101869.05
2018-12-13T02:55:08.389Z,101863.27
2018-12-13T02:57:38.970Z,101862.98
2018-12-13T03:00:09.603Z,101867.39
2018-12-13T03:02:42.230Z,101861.84
2018-12-13T03:05:12.922Z,101862.16
2018-12-13T03:07:43.481Z,101856.03
2018-12-13T03:10:14.040Z,101855.50
2018-12-13T03:12:45.244Z,101859.61
2018-12-13T03:15:15.778Z,101854.03
2018-12-13T03:17:46.338Z,101855.27
2018-12-13T03:20:16.946Z,101855.41
2018-12-13T03:22:47.470Z,101855.19
2018-12-13T03:25:18.017Z,101851.70
2018-12-13T03:27:48.545Z,101856.73
2018-12-13T03:30:19.183Z,101851.06
2018-12-13T03:32:49.966Z,101857.31
2018-12-13T03:35:20.513Z,101852.84
2018-12-13T03:37:53.070Z,101853.82
2018-12-13T03:40:23.620Z,101855.41
2018-12-13T03:42:54.346Z,101850.64
2018-12-13T03:45:24.894Z,101845.84
2018-12-13T03:47:55.386Z,101846.80
2018-12-13T03:50:25.937Z,101849.48
2018-12-13T03:52:56.487Z,101854.98
2018-12-13T03:55:27.030Z,101850.02
2018-12-13T03:57:57.579Z,101840.81
2018-12-13T04:00:28.219Z,101846.42
2018-12-13T04:02:58.761Z,101843.02
2018-12-13T04:05:29.329Z,101846.52
2018-12-13T04:08:01.008Z,101843.91
2018-12-13T04:10:31.659Z,101844.31
2018-12-13T04:13:02.218Z,101844.51
2018-12-13T04:15:32.950Z,101845.95
2018-12-13T04:18:03.527Z,101845.30
2018-12-13T04:20:36.082Z,101838.05
2018-12-13T04:23:06.721Z,101844.47
2018-12-13T04:25:37.310Z,101836.02
2018-12-13T04:28:07.911Z,101840.89
2018-12-13T04:30:38.444Z,101837.74
2018-12-13T04:33:08.949Z,101838.30
2018-12-13T04:35:39.476Z,101831.61
2018-12-13T04:38:10.005Z,101836.17
2018-12-13T04:40:40.577Z,101833.77
2018-12-13T04:43:11.166Z,101829.38
2018-12-13T04:45:41.797Z,101828.71
2018-12-13T04:48:12.343Z,101832.48
2018-12-13T04:50:42.867Z,101826.87
2018-12-13T04:53:13.425Z,101827.85
2018-12-13T04:55:43.992Z,101829.52
2018-12-13T04:58:14.535Z,101831.58
2018-12-13T05:00:45.293Z,101830.23
2018-12-13T05:03:15.802Z,101825.28
2018-12-13T05:05:46.418Z,101826.02
2018-12-13T05:08:17.941Z,101833.27
2018-12-13T05:10:54.533Z,101824.03
2018-12-13T05:13:25.183Z,101829.47
2018-12-13T05:15:55.696Z,101828.06
2018-12-13T05:18:26.282Z,101826.63
2018-12-13T05:20:56.785Z,101823.64
2018-12-13T05:23:27.274Z,101825.20
2018-12-13T05:25:57.827Z,101823.05
2018-12-13T05:28:28.381Z,101821.08
2018-12-13T05:30:58.914Z,101826.47
2018-12-13T05:33:29.480Z,101823.99
2018-12-13T05:35:59.991Z,101823.72
2018-12-13T05:38:30.574Z,101824.74
2018-12-13T05:41:01.260Z,101822.06
2018-12-13T05:43:31.798Z,101825.57
2018-12-13T05:46:02.569Z,101828.14
2018-12-13T05:48:33.224Z,101823.67
2018-12-13T05:51:04.098Z,101826.23
2018-12-13T05:53:34.600Z,101823.78
2018-12-13T05:56:05.262Z,101826.59
2018-12-13T05:58:35.829Z,101829.15
2018-12-13T06:01:06.468Z,101832.47
2018-12-13T06:03:37.017Z,101825.78
2018-12-13T06:06:07.610Z,101824.77
2018-12-13T06:08:38.274Z,101832.77
2018-12-13T06:11:09.194Z,101834.27
2018-12-13T06:13:39.827Z,101827.33
2018-12-13T06:16:10.356Z,101828.41
2018-12-13T06:18:41.023Z,101835.23
2018-12-13T06:21:11.901Z,101829.51
2018-12-13T06:23:42.770Z,101831.19
2018-12-13T06:26:13.355Z,101835.78
2018-12-13T06:28:44.517Z,101838.04
2018-12-13T06:31:15.207Z,101837.30
2018-12-13T06:33:45.863Z,101837.82
2018-12-13T06:36:17.204Z,101845.98
2018-12-13T06:38:47.890Z,101844.06
2018-12-13T06:41:18.671Z,101840.34
2018-12-13T06:43:49.363Z,101857.63
2018-12-13T06:46:19.935Z,101853.51
2018-12-13T06:48:50.580Z,101854.63
2018-12-13T06:51:21.298Z,101857.01
2018-12-13T06:53:51.900Z,101853.22
2018-12-13T06:56:22.655Z,101855.48
2018-12-13T06:58:53.238Z,101845.98
2018-12-13T07:01:23.966Z,101850.53
2018-12-13T07:03:54.639Z,101854.41
2018-12-13T07:06:25.307Z,101851.53
2018-12-13T07:08:55.897Z,101850.66
2018-12-13T07:11:26.692Z,101850.50
2018-12-13T07:13:57.362Z,101853.67
2018-12-13T07:16:29.957Z,101853.87
2018-12-13T07:19:00.788Z,101855.72
2018-12-13T07:21:31.908Z,101850.41
2018-12-13T07:24:02.726Z,101856.33
2018-12-13T07:26:33.394Z,101861.41
2018-12-13T07:32:10.115Z,101859.44
2018-12-13T07:34:41.541Z,101861.05
2018-12-13T07:37:14.915Z,101856.04
2018-12-13T07:39:45.530Z,101860.66
2018-12-13T07:42:16.451Z,101863.87
2018-12-13T07:44:47.138Z,101862.89
2018-12-13T07:47:17.813Z,101861.77
2018-12-13T07:49:48.464Z,101866.63
2018-12-13T07:52:19.147Z,101864.80
2018-12-13T07:54:49.754Z,101863.64
2018-12-13T07:57:20.409Z,101859.63
2018-12-13T07:59:51.201Z,101864.66
2018-12-13T08:02:21.835Z,101865.48
2018-12-13T08:04:52.518Z,101864.20
2018-12-13T08:07:23.104Z,101867.09
2018-12-13T08:09:53.775Z,101862.98
2018-12-13T08:12:24.544Z,101862.89
2018-12-13T08:14:55.053Z,101864.72
2018-12-13T08:17:25.593Z,101865.31
2018-12-13T08:19:58.196Z,101865.41
2018-12-13T08:22:28.763Z,101863.90
2018-12-13T08:24:59.399Z,101859.61
2018-12-13T08:27:29.911Z,101865.94
2018-12-13T08:30:00.553Z,101861.99
2018-12-13T08:32:31.150Z,101858.94
2018-12-13T08:35:01.692Z,101860.08
2018-12-13T08:37:32.282Z,101864.09
2018-12-13T08:40:02.899Z,101859.59
2018-12-13T08:42:34.844Z,101856.78
2018-12-13T08:45:05.713Z,101861.31
2018-12-13T08:50:23.190Z,101859.53
2018-12-13T08:52:54.177Z,101860.53
2018-12-13T08:55:24.686Z,101872.05
2018-12-13T08:57:55.279Z,101871.48
2018-12-13T09:00:25.789Z,101870.97
2018-12-13T09:02:56.298Z,101866.41
2018-12-13T09:05:26.886Z,101865.92
2018-12-13T09:07:57.358Z,101860.06
2018-12-13T09:10:27.903Z,101860.83
2018-12-13T09:12:58.615Z,101860.13
2018-12-13T09:15:29.574Z,101859.77
2018-12-13T09:18:00.200Z,101855.78
2018-12-13T09:20:30.718Z,101859.39
2018-12-13T09:23:01.298Z,101852.69
2018-12-13T09:25:31.959Z,101851.63
2018-12-13T09:28:02.585Z,101850.86
2018-12-13T09:30:33.529Z,101849.50
2018-12-13T09:33:04.531Z,101849.92
2018-12-13T09:35:35.229Z,101855.25
2018-12-13T09:38:06.559Z,101846.06
2018-12-13T09:40:37.132Z,101844.68
2018-12-13T09:43:07.732Z,101845.77
2018-12-13T09:45:38.247Z,101844.14
2018-12-13T09:48:08.783Z,101846.22
2018-12-13T09:50:39.559Z,101842.55
2018-12-13T09:53:11.716Z,101840.77
2018-12-13T09:55:42.203Z,101838.38
2018-12-13T09:58:12.866Z,101837.06
2018-12-13T10:00:43.392Z,101828.52
2018-12-13T10:03:15.077Z,101829.76
2018-12-13T10:05:45.647Z,101829.59
2018-12-13T10:08:16.557Z,101825.12
2018-12-13T10:10:47.085Z,101824.27
2018-12-13T10:13:17.800Z,101825.33
2018-12-13T10:15:48.270Z,101821.91
2018-12-13T10:18:18.852Z,101823.74
2018-12-13T10:20:49.361Z,101815.95
2018-12-13T10:23:19.976Z,101819.56
2018-12-13T10:25:50.790Z,101813.39
2018-12-13T10:28:21.421Z,101818.65
2018-12-13T10:30:51.968Z,101814.01
2018-12-13T10:33:22.452Z,101808.44
2018-12-13T10:35:53.014Z,101808.27
2018-12-13T10:38:23.523Z,101804.16
2018-12-13T10:40:54.088Z,101804.72
2018-12-13T10:43:24.893Z,101791.55
2018-12-13T10:45:55.429Z,101794.97
2018-12-13T10:48:25.977Z,101801.12
2018-12-13T10:50:56.626Z,101797.22
2018-12-13T10:53:27.216Z,101795.31
2018-12-13T10:55:57.799Z,101787.05
2018-12-13T10:58:28.351Z,101786.57
2018-12-13T11:01:04.028Z,101788.61
2018-12-13T11:03:36.516Z,101788.27
2018-12-13T11:06:07.070Z,101794.34
2018-12-13T11:08:37.540Z,101794.94
2018-12-13T11:11:08.098Z,101792.50
2018-12-13T11:13:38.584Z,101792.42
2018-12-13T11:16:09.117Z,101796.98
2018-12-13T11:18:39.627Z,101797.18
2018-12-13T11:21:10.166Z,101793.81
2018-12-13T11:23:40.672Z,101796.08
2018-12-13T11:26:11.156Z,101796.92
2018-12-13T11:29:57.247Z,101796.25
2018-12-13T11:32:27.771Z,101799.29
2018-12-13T11:34:58.290Z,101796.80
2018-12-13T11:37:30.024Z,101796.92
2018-12-13T11:40:00.519Z,101794.67
2018-12-13T11:42:31.014Z,101795.05
2018-12-13T11:45:01.562Z,101797.30
2018-12-13T11:47:32.571Z,101802.26
2018-12-13T11:50:03.119Z,101807.66
2018-12-13T11:52:33.645Z,101796.73
2018-12-13T11:55:16.510Z,101793.49
2018-12-13T11:57:48.150Z,101799.37
2018-12-13T12:00:19.100Z,101799.16
2018-12-13T12:02:50.712Z,101794.36
2018-12-13T12:05:21.243Z,101791.84
2018-12-13T12:07:51.729Z,101796.47
2018-12-13T12:10:22.293Z,101797.92
2018-12-13T12:12:52.800Z,101787.09
2018-12-13T12:15:23.309Z,101795.17
2018-12-13T12:17:53.874Z,101789.23
2018-12-13T12:20:24.507Z,101788.23
2018-12-13T12:22:54.994Z,101792.67
2018-12-13T12:25:25.816Z,101788.19
2018-12-13T12:27:57.502Z,101782.08
2018-12-13T12:30:28.279Z,101779.28
2018-12-13T12:32:58.726Z,101783.59
2018-12-13T12:35:29.243Z,101779.17
2018-12-13T12:37:59.719Z,101781.72
2018-12-13T12:40:30.178Z,101782.30
2018-12-13T12:43:00.717Z,101783.78
2018-12-13T12:45:31.265Z,101793.72
2018-12-13T12:48:01.947Z,101778.12
2018-12-13T12:50:32.557Z,101774.82
2018-12-13T12:53:03.141Z,101777.22
2018-12-13T12:55:33.836Z,101771.56
2018-12-13T12:58:04.539Z,101776.16
2018-12-13T13:00:35.125Z,101780.33
2018-12-13T13:03:05.703Z,101786.45
2018-12-13T13:05:36.207Z,101780.78
2018-12-13T13:08:06.720Z,101789.73
2018-12-13T13:10:37.231Z,101791.71
2018-12-13T13:13:07.761Z,101785.44
2018-12-13T13:15:38.255Z,101782.01
2018-12-13T13:18:08.836Z,101788.00
2018-12-13T13:20:39.514Z,101783.08
2018-12-13T13:23:10.098Z,101785.97
2018-12-13T13:25:40.634Z,101784.69
2018-12-13T13:28:11.226Z,101789.59
2018-12-13T13:30:41.885Z,101789.17
2018-12-13T13:33:15.383Z,101782.98
2018-12-13T13:35:45.961Z,101777.69
2018-12-13T13:38:16.489Z,101777.16
2018-12-13T13:40:48.074Z,101780.56
2018-12-13T13:43:18.744Z,101779.11
2018-12-13T13:45:49.287Z,101792.97
2018-12-13T13:48:20.529Z,101790.04
2018-12-13T13:50:53.045Z,101787.59
2018-12-13T13:53:23.551Z,101793.84
2018-12-13T13:55:54.100Z,101789.37
2018-12-13T13:58:25.612Z,101802.69
2018-12-13T14:00:57.503Z,101795.45
2018-12-13T14:03:29.088Z,101792.97
2018-12-13T14:05:59.856Z,101792.20
2018-12-13T14:08:32.423Z,101787.74
2018-12-13T14:11:04.250Z,101794.99
2018-12-13T14:13:35.083Z,101798.80
2018-12-13T14:16:06.622Z,101800.08
2018-12-13T14:18:38.814Z,101797.33
2018-12-13T14:21:10.670Z,101806.03
2018-12-13T14:23:43.747Z,101796.06
2018-12-13T14:26:16.217Z,101800.96
2018-12-13T14:28:46.839Z,101807.47
2018-12-13T14:31:17.454Z,101809.28
2018-12-13T14:33:48.070Z,101813.02
2018-12-13T14:36:19.023Z,101805.84
2018-12-13T14:38:49.593Z,101797.19
2018-12-13T14:41:22.654Z,101803.83
2018-12-13T14:44:12.400Z,101809.95
2018-12-13T14:46:42.896Z,101802.50
2018-12-13T14:49:13.717Z,101804.61
2018-12-13T14:54:31.837Z,101804.09
2018-12-13T14:57:03.110Z,101797.78
2018-12-13T14:59:33.950Z,101798.78
2018-12-13T15:02:05.985Z,101810.61
2018-12-13T15:04:37.619Z,101813.58
2018-12-13T15:07:09.902Z,101799.74
2018-12-13T15:09:40.592Z,101809.37
2018-12-13T15:12:11.409Z,101812.29
2018-12-13T15:14:42.383Z,101800.91
2018-12-13T15:17:13.015Z,101809.27
2018-12-13T15:19:43.530Z,101807.89
2018-12-13T15:22:14.179Z,101812.68
2018-12-13T15:24:44.869Z,101811.52
2018-12-13T15:27:15.483Z,101816.66
2018-12-13T15:29:46.156Z,101817.00
2018-12-13T15:32:16.982Z,101812.44
2018-12-13T15:34:47.461Z,101819.70
2018-12-13T15:37:18.017Z,101810.07
2018-12-13T15:39:48.831Z,101820.00
2018-12-13T15:42:19.507Z,101826.36
2018-12-13T15:44:50.266Z,101813.95
2018-12-13T15:47:20.975Z,101812.28
2018-12-13T15:49:51.638Z,101814.52
2018-12-13T15:52:22.418Z,101820.48
2018-12-13T15:54:53.437Z,101820.73
2018-12-13T15:57:25.231Z,101822.75
2018-12-13T15:59:55.964Z,101823.02
2018-12-13T16:02:28.581Z,101821.23
2018-12-13T16:04:59.399Z,101819.43
2018-12-13T16:07:30.164Z,101829.97
2018-12-13T16:10:04.107Z,101833.89
2018-12-13T16:12:34.046Z,101826.33
2018-12-13T16:15:07.207Z,101820.25
2018-12-13T16:17:38.014Z,101815.39
2018-12-13T16:20:08.722Z,101819.73
2018-12-13T16:22:45.906Z,101814.27
2018-12-13T16:25:16.566Z,101811.77
2018-12-13T16:27:47.376Z,101804.01
2018-12-13T16:30:18.670Z,101811.91
2018-12-13T16:32:50.421Z,101812.52
2018-12-13T16:35:21.256Z,101814.02
2018-12-13T16:37:52.086Z,101807.70
2018-12-13T16:40:22.888Z,101811.05
2018-12-13T16:42:53.723Z,101814.25
2018-12-13T16:45:24.666Z,101815.02
2018-12-13T16:47:55.532Z,101817.39
2018-12-13T16:50:28.199Z,101816.56
2018-12-13T16:53:00.399Z,101812.06
2018-12-13T16:55:31.278Z,101815.75
2018-12-13T16:58:02.360Z,101816.23
2018-12-13T17:00:32.990Z,101816.66
2018-12-13T17:03:19.491Z,101821.88
2018-12-13T17:05:52.579Z,101822.64
2018-12-13T17:08:23.884Z,101812.45
2018-12-13T17:10:56.448Z,101834.33
2018-12-13T17:13:27.398Z,101822.07
2018-12-13T17:15:58.080Z,101819.72
2018-12-13T17:18:28.960Z,101820.92
2018-12-13T17:20:59.695Z,101820.96
2018-12-13T17:23:30.485Z,101825.97
2018-12-13T17:26:01.223Z,101821.57
2018-12-13T17:28:33.378Z,101816.33
2018-12-13T17:31:04.471Z,101816.53
2018-12-13T17:33:35.387Z,101815.70
2018-12-13T17:36:07.254Z,101821.83
2018-12-13T17:38:38.207Z,101821.25
2018-12-13T17:41:09.968Z,101821.08
2018-12-13T17:43:41.648Z,101816.53
2018-12-13T17:46:12.934Z,101811.63
2018-12-13T17:48:43.641Z,101820.13
2018-12-13T17:51:14.816Z,101819.97
2018-12-13T17:53:45.487Z,101815.70
2018-12-13T17:56:16.466Z,101820.13
2018-12-13T17:58:46.991Z,101818.80
2018-12-13T18:01:18.019Z,101824.46
2018-12-13T18:03:49.065Z,101819.86
2018-12-13T18:06:22.218Z,101814.75
2018-12-13T18:08:53.030Z,101816.16
2018-12-13T18:11:24.371Z,101820.63
2018-12-13T18:13:56.625Z,101822.44
2018-12-13T18:16:27.506Z,101826.09
2018-12-13T18:18:58.602Z,101818.16
2018-12-13T18:21:29.519Z,101823.29
2018-12-13T18:24:00.598Z,101823.73
2018-12-13T18:26:31.914Z,101824.50
2018-12-13T18:29:02.791Z,101825.56
2018-12-13T18:31:33.648Z,101837.45
2018-12-13T18:34:04.970Z,101843.01
2018-12-13T18:36:35.731Z,101835.80
2018-12-13T18:39:08.926Z,101840.39
2018-12-13T18:41:40.198Z,101836.73
2018-12-13T18:44:11.090Z,101838.71
2018-12-13T18:46:42.026Z,101841.41
2018-12-13T18:49:12.717Z,101848.80
2018-12-13T18:51:43.290Z,101856.52
2018-12-13T18:54:14.768Z,101848.07
2018-12-13T18:56:46.661Z,101846.76
2018-12-13T18:59:17.338Z,101851.55
2018-12-13T19:01:48.005Z,101848.14
2018-12-13T19:04:18.673Z,101846.75
2018-12-13T19:06:49.450Z,101850.09
2018-12-13T19:09:20.199Z,101846.12
2018-12-13T19:11:51.499Z,101846.81
2018-12-13T19:14:22.159Z,101853.87
2018-12-13T19:16:53.666Z,101853.59
2018-12-13T19:19:24.374Z,101850.37
2018-12-13T19:21:55.032Z,101853.44
2018-12-13T19:24:25.742Z,101855.47
2018-12-13T19:29:44.421Z,101847.90
2018-12-13T19:32:15.455Z,101851.08
2018-12-13T19:34:46.114Z,101853.09
2018-12-13T19:37:16.886Z,101858.20
2018-12-13T19:39:47.977Z,101856.20
2018-12-13T19:42:18.694Z,101857.98
2018-12-13T19:44:51.026Z,101862.80
2018-12-13T19:47:22.264Z,101854.37
2018-12-13T19:49:54.573Z,101864.23
2018-12-13T19:52:27.198Z,101859.27
2018-12-13T19:54:58.022Z,101859.15
2018-12-13T19:57:28.629Z,101862.35
2018-12-13T19:59:59.288Z,101864.34
2018-12-13T20:02:30.086Z,101865.19
2018-12-13T20:05:01.090Z,101861.81
2018-12-13T20:07:32.083Z,101866.45
2018-12-13T20:10:02.851Z,101867.61
2018-12-13T20:12:33.639Z,101874.11
2018-12-13T20:15:04.264Z,101869.68
2018-12-13T20:17:35.427Z,101866.98
2018-12-13T20:20:07.048Z,101868.70
2018-12-13T20:22:38.329Z,101870.80
2018-12-13T20:25:10.013Z,101869.44
2018-12-13T20:27:40.575Z,101872.28
2018-12-13T20:30:11.136Z,101878.81
2018-12-13T20:32:41.758Z,101876.07
2018-12-13T20:35:12.812Z,101878.27
2018-12-13T20:37:43.528Z,101874.88
2018-12-13T20:40:14.235Z,101871.53
2018-12-13T20:42:44.737Z,101872.44
2018-12-13T20:45:15.725Z,101870.90
2018-12-13T20:47:47.425Z,101871.11
2018-12-13T20:50:18.880Z,101872.12
2018-12-13T20:52:49.519Z,101875.57
2018-12-13T20:55:21.013Z,101872.58
2018-12-13T20:57:51.736Z,101870.59
2018-12-13T21:00:22.874Z,101876.72
2018-12-13T21:02:53.482Z,101875.95
2018-12-13T21:05:24.102Z,101873.34
2018-12-13T21:07:59.119Z,101872.41
2018-12-13T21:10:30.349Z,101873.45
2018-12-13T21:13:00.893Z,101877.70
2018-12-13T21:15:31.517Z,101876.52
2018-12-13T21:18:02.494Z,101881.90
2018-12-13T21:20:32.997Z,101881.20
2018-12-13T21:23:03.862Z,101873.03
2018-12-13T21:25:34.884Z,101882.62
2018-12-13T21:28:05.674Z,101878.75
2018-12-13T21:30:36.298Z,101885.10
2018-12-13T21:33:06.959Z,101874.66
2018-12-13T21:35:37.733Z,101878.70
2018-12-13T21:38:09.355Z,101877.47
2018-12-13T21:40:41.829Z,101874.80
2018-12-13T21:43:12.662Z,101878.81
2018-12-13T21:45:43.251Z,101878.40
2018-12-13T21:48:14.029Z,101878.53
2018-12-13T21:50:44.843Z,101878.64
2018-12-13T21:53:15.598Z,101874.78
2018-12-13T21:55:47.529Z,101876.28
2018-12-13T21:58:18.199Z,101874.36
2018-12-13T22:00:49.595Z,101876.95
2018-12-13T22:03:28.701Z,101874.84
2018-12-13T22:06:00.696Z,101877.50
2018-12-13T22:08:31.656Z,101884.27
2018-12-13T22:11:02.447Z,101881.06
2018-12-13T22:13:33.381Z,101879.94
2018-12-13T22:16:04.140Z,101882.93
2018-12-13T22:18:35.954Z,101885.07
2018-12-13T22:21:06.737Z,101877.73
2018-12-13T22:23:37.336Z,101878.34
2018-12-13T22:26:09.038Z,101873.38
2018-12-13T22:28:46.224Z,101875.09
2018-12-13T22:31:17.762Z,101876.80
2018-12-13T22:33:48.329Z,101870.91
2018-12-13T22:36:18.962Z,101873.91
2018-12-13T22:38:50.178Z,101871.66
2018-12-13T22:41:26.186Z,101878.02
2018-12-13T22:43:53.723Z,101875.97
2018-12-13T22:46:24.260Z,101874.36
2018-12-13T22:48:54.782Z,101869.82
2018-12-13T22:51:25.350Z,101870.63
2018-12-13T22:53:55.899Z,101881.42
2018-12-13T22:56:26.430Z,101885.77
2018-12-13T22:58:56.955Z,101884.27
2018-12-13T23:01:27.465Z,101887.80
2018-12-13T23:03:58.174Z,101889.96
2018-12-13T23:06:28.747Z,101883.42
2018-12-13T23:08:59.303Z,101888.32
2018-12-13T23:11:32.658Z,101893.54
2018-12-13T23:14:03.578Z,101894.75
2018-12-13T23:16:34.183Z,101893.77
2018-12-13T23:19:04.830Z,101892.99
2018-12-13T23:21:35.421Z,101889.69
2018-12-13T23:24:06.196Z,101891.88
2018-12-13T23:26:37.040Z,101895.64
2018-12-13T23:29:07.887Z,101894.22
2018-12-13T23:31:38.363Z,101891.92
2018-12-13T23:34:08.910Z,101896.69
2018-12-13T23:36:39.475Z,101897.03
2018-12-13T23:39:10.146Z,101898.93
2018-12-13T23:41:40.948Z,101901.13
2018-12-13T23:44:11.614Z,101904.26
2018-12-13T23:46:42.151Z,101907.10
2018-12-13T23:49:12.769Z,101909.85
2018-12-13T23:51:43.750Z,101911.19
2018-12-13T23:54:14.452Z,101904.91
2018-12-13T23:56:45.000Z,101908.30
2018-12-13T23:59:17.756Z,101910.14
